Time;durP1;ratioP1;P1;durP2;ratioP2;P2;SDS_P1;SDS_P2;PMS_P1;PMS_P2;Temp;Humidity;BMP_temperature;BMP_pressure;BME280_temperature;BME280_humidity;BME280_pressure;Samples;Min_cycle;Max_cycle;Signal;HPM_P1;HPM_P2
2022/03/25 00:01:38;;;;;;;42.88;21.30;;;11.40;56.20;;;;;;5133505;28;20024;-66
2022/03/25 00:04:04;;;;;;;50.47;23.08;;;11.30;55.40;;;;;;5134733;28;20027;-66
2022/03/25 00:06:31;;;;;;;45.67;21.90;;;11.40;55.80;;;;;;5134823;28;20061;-66
2022/03/25 00:08:56;;;;;;;48.88;22.75;;;11.40;55.60;;;;;;5134708;28;20032;-66
2022/03/25 00:11:22;;;;;;;47.30;22.70;;;11.50;55.70;;;;;;5134580;28;20065;-66
2022/03/25 00:13:47;;;;;;;45.67;21.30;;;11.60;55.50;;;;;;5134537;28;20024;-66
2022/03/25 00:16:13;;;;;;;44.25;20.58;;;11.70;55.40;;;;;;5134431;28;20050;-66
2022/03/25 00:18:39;;;;;;;48.58;22.00;;;11.70;54.70;;;;;;5134439;28;20153;-66
2022/03/25 00:21:05;;;;;;;47.05;22.10;;;11.60;54.50;;;;;;5134609;28;20076;-66
2022/03/25 00:23:30;;;;;;;50.80;23.13;;;11.60;54.50;;;;;;5134415;28;20016;-66
2022/03/25 00:25:56;;;;;;;52.00;23.10;;;11.70;54.40;;;;;;5134339;28;20051;-66
2022/03/25 00:28:22;;;;;;;54.03;22.70;;;11.60;54.30;;;;;;5134288;28;20079;-66
2022/03/25 00:30:49;;;;;;;50.65;22.73;;;11.50;54.80;;;;;;5133244;28;20031;-66
2022/03/25 00:33:16;;;;;;;48.60;22.20;;;11.40;55.20;;;;;;5134257;28;20023;-66
2022/03/25 00:35:42;;;;;;;48.88;22.65;;;11.40;55.10;;;;;;5134154;28;20043;-66
2022/03/25 00:38:08;;;;;;;47.47;21.55;;;11.50;55.00;;;;;;5134141;28;20019;-66
2022/03/25 00:40:33;;;;;;;51.92;22.90;;;11.50;55.00;;;;;;5134162;28;20076;-66
2022/03/25 00:42:59;;;;;;;48.92;22.27;;;11.50;54.80;;;;;;5134044;28;20024;-66
2022/03/25 00:45:28;;;;;;;50.83;22.02;;;11.30;55.10;;;;;;5134030;28;20034;-66
2022/03/25 00:47:55;;;;;;;47.38;20.85;;;11.30;55.30;;;;;;5134077;28;20023;-66
2022/03/25 00:50:20;;;;;;;55.90;21.08;;;11.40;55.10;;;;;;5134142;28;20034;-66
2022/03/25 00:52:46;;;;;;;50.05;22.15;;;11.30;55.10;;;;;;5133961;28;20067;-66
2022/03/25 00:55:12;;;;;;;48.55;21.42;;;11.20;55.50;;;;;;5133825;28;20031;-66
2022/03/25 00:57:37;;;;;;;46.40;21.38;;;11.30;55.70;;;;;;5133937;28;20015;-66
2022/03/25 01:00:05;;;;;;;47.60;21.83;;;11.40;55.30;;;;;;5133858;28;20127;-66
2022/03/25 01:02:30;;;;;;;46.47;20.73;;;11.50;55.00;;;;;;5133869;28;20047;-66
2022/03/25 01:04:56;;;;;;;49.40;20.83;;;11.50;54.80;;;;;;5133869;28;20039;-66
2022/03/25 01:07:21;;;;;;;45.00;20.95;;;11.60;55.00;;;;;;5133772;28;20035;-66
2022/03/25 01:09:47;;;;;;;45.80;20.73;;;11.60;54.90;;;;;;5139060;28;20031;-66
2022/03/25 01:12:13;;;;;;;45.17;20.30;;;11.60;55.10;;;;;;5140772;27;20027;-66
2022/03/25 01:14:38;;;;;;;46.40;20.38;;;11.50;55.30;;;;;;5140505;28;20047;-66
2022/03/25 01:17:04;;;;;;;46.33;20.88;;;11.50;55.00;;;;;;5140584;28;20053;-66
2022/03/25 01:19:30;;;;;;;42.97;19.67;;;11.60;54.70;;;;;;5140348;28;20040;-66
2022/03/25 01:21:57;;;;;;;49.50;21.33;;;11.60;54.60;;;;;;5140523;27;20047;-66
2022/03/25 01:24:23;;;;;;;43.53;19.98;;;11.70;54.30;;;;;;5140503;27;20043;-66
2022/03/25 01:26:49;;;;;;;46.90;21.52;;;11.70;54.40;;;;;;5140464;27;20027;-66
2022/03/25 01:29:15;;;;;;;46.45;21.05;;;11.70;54.20;;;;;;5139394;28;20035;-66
2022/03/25 01:31:40;;;;;;;46.70;20.17;;;11.70;54.20;;;;;;5140424;28;20036;-66
2022/03/25 01:34:06;;;;;;;46.88;20.52;;;11.80;54.30;;;;;;5140452;27;20027;-66
2022/03/25 01:36:32;;;;;;;45.83;21.38;;;11.80;54.10;;;;;;5140319;27;20084;-66
2022/03/25 01:38:58;;;;;;;42.08;20.73;;;11.80;54.00;;;;;;5140404;27;20031;-66
2022/03/25 01:41:24;;;;;;;48.72;20.95;;;11.70;54.50;;;;;;5140339;27;20071;-66
2022/03/25 01:43:55;;;;;;;44.65;20.60;;;11.60;54.90;;;;;;5140341;27;20027;-66
2022/03/25 01:46:21;;;;;;;44.95;21.05;;;11.60;54.40;;;;;;5140309;27;20024;-66
2022/03/25 01:48:50;;;;;;;47.55;19.73;;;11.60;54.20;;;;;;5140292;27;20024;-66
2022/03/25 01:51:39;;;;;;;45.97;20.35;;;11.60;54.00;;;;;;5140402;27;20049;-66
2022/03/25 01:54:27;;;;;;;43.10;20.10;;;11.70;53.70;;;;;;5132156;27;20099;-66
2022/03/25 01:57:05;;;;;;;41.97;20.35;;;11.70;54.40;;;;;;5140174;28;20031;-66
2022/03/25 01:59:32;;;;;;;44.40;18.95;;;11.70;53.10;;;;;;5140167;27;20048;-66
2022/03/25 02:01:59;;;;;;;42.83;19.83;;;11.70;52.90;;;;;;5140176;27;20016;-66
2022/03/25 02:04:25;;;;;;;46.50;21.10;;;11.70;53.00;;;;;;5140154;27;20020;-66
2022/03/25 02:06:52;;;;;;;44.63;19.88;;;11.60;52.90;;;;;;5140083;27;20020;-66
2022/03/25 02:09:18;;;;;;;45.30;20.20;;;11.60;52.70;;;;;;5140083;27;20115;-66
2022/03/25 02:11:44;;;;;;;45.58;21.05;;;11.50;52.80;;;;;;5140025;28;20050;-66
2022/03/25 02:14:10;;;;;;;46.30;20.55;;;11.50;53.10;;;;;;5140061;27;20083;-66
2022/03/25 02:16:40;;;;;;;40.67;20.30;;;11.40;54.30;;;;;;5139985;27;20032;-66
2022/03/25 02:19:08;;;;;;;43.88;20.15;;;11.40;53.50;;;;;;5139916;27;20040;-66
2022/03/25 02:21:38;;;;;;;47.58;21.52;;;11.40;53.80;;;;;;5136343;27;20061;-66
2022/03/25 02:24:06;;;;;;;47.67;21.50;;;11.40;53.90;;;;;;5136775;28;20053;-66
2022/03/25 02:26:32;;;;;;;50.92;20.92;;;11.30;53.70;;;;;;5136727;28;20047;-66
2022/03/25 02:28:59;;;;;;;42.13;19.58;;;11.30;53.90;;;;;;5136566;28;20031;-66
2022/03/25 02:31:24;;;;;;;47.60;20.90;;;11.20;54.30;;;;;;5136621;28;20137;-66
2022/03/25 02:33:53;;;;;;;49.55;21.42;;;11.10;54.60;;;;;;5136569;28;20036;-66
2022/03/25 02:36:18;;;;;;;38.97;18.25;;;11.00;54.60;;;;;;5136499;28;20028;-66
2022/03/25 02:38:44;;;;;;;47.30;21.55;;;11.00;54.40;;;;;;5136422;28;20034;-66
2022/03/25 02:41:10;;;;;;;44.40;20.05;;;11.00;54.30;;;;;;5136379;28;20027;-66
2022/03/25 02:43:35;;;;;;;44.88;20.27;;;11.00;54.20;;;;;;5136371;28;20024;-66
2022/03/25 02:46:01;;;;;;;48.22;22.00;;;11.00;54.20;;;;;;5136305;28;20035;-66
2022/03/25 02:48:27;;;;;;;46.67;20.70;;;11.00;54.00;;;;;;5136368;28;20058;-66
2022/03/25 02:50:52;;;;;;;45.10;20.35;;;10.80;54.20;;;;;;5136225;27;20042;-66
2022/03/25 02:53:18;;;;;;;44.30;21.27;;;10.70;54.80;;;;;;5136143;28;20091;-66
2022/03/25 02:55:44;;;;;;;45.20;20.38;;;10.70;55.00;;;;;;5136035;28;20087;-66
2022/03/25 02:58:10;;;;;;;47.40;20.02;;;10.70;55.10;;;;;;5136169;28;20034;-66
2022/03/25 03:00:35;;;;;;;45.47;21.00;;;10.40;55.30;;;;;;5136041;28;20027;-66
2022/03/25 03:03:01;;;;;;;48.80;21.42;;;10.40;55.80;;;;;;5135955;28;20080;-66
2022/03/25 03:05:28;;;;;;;43.58;19.48;;;10.40;55.80;;;;;;5135943;28;20051;-66
2022/03/25 03:07:54;;;;;;;46.53;19.80;;;10.50;55.70;;;;;;5135852;28;20083;-66
2022/03/25 03:10:21;;;;;;;44.17;19.55;;;10.50;55.30;;;;;;5135883;28;20020;-66
2022/03/25 03:12:46;;;;;;;45.35;19.65;;;10.40;54.80;;;;;;5135807;28;20035;-66
2022/03/25 03:15:15;;;;;;;44.78;19.52;;;10.40;54.40;;;;;;5135694;28;20079;-66
2022/03/25 03:17:41;;;;;;;45.22;20.25;;;10.30;54.40;;;;;;5135700;28;20015;-66
2022/03/25 03:20:07;;;;;;;45.92;19.45;;;10.30;54.60;;;;;;5135338;28;20047;-65
2022/03/25 03:22:33;;;;;;;44.78;19.25;;;10.20;54.70;;;;;;5135597;28;20471;-66
2022/03/25 03:25:00;;;;;;;44.03;19.48;;;10.20;55.00;;;;;;5135553;28;20083;-66
2022/03/25 03:27:25;;;;;;;43.47;20.02;;;10.10;55.00;;;;;;5135564;28;20054;-66
2022/03/25 03:29:51;;;;;;;47.08;20.55;;;10.10;55.10;;;;;;5135453;28;20028;-66
2022/03/25 03:32:18;;;;;;;42.42;19.42;;;10.10;55.50;;;;;;5134268;28;20035;-66
2022/03/25 03:34:44;;;;;;;46.90;19.98;;;9.90;56.30;;;;;;5135365;28;20023;-66
2022/03/25 03:37:09;;;;;;;43.70;20.20;;;9.80;56.30;;;;;;5135311;28;20020;-66
2022/03/25 03:39:35;;;;;;;42.58;20.20;;;9.80;55.90;;;;;;5135225;28;20038;-66
2022/03/25 03:42:03;;;;;;;46.58;19.63;;;9.70;56.10;;;;;;5134427;28;20027;-66
2022/03/25 03:44:29;;;;;;;42.67;19.02;;;9.70;56.30;;;;;;5135284;28;20020;-66
2022/03/25 03:46:55;;;;;;;45.60;18.88;;;9.70;56.40;;;;;;5135112;28;20024;-66
2022/03/25 03:49:21;;;;;;;47.95;19.10;;;9.50;56.60;;;;;;5134012;28;20051;-66
2022/03/25 03:51:47;;;;;;;45.30;19.08;;;9.50;56.40;;;;;;5135010;28;20023;-66
2022/03/25 03:54:13;;;;;;;43.20;19.15;;;9.50;56.10;;;;;;5134986;28;20034;-66
2022/03/25 03:56:39;;;;;;;41.75;19.40;;;9.30;56.70;;;;;;5134841;28;20032;-66
2022/03/25 03:59:04;;;;;;;44.58;19.60;;;9.30;56.50;;;;;;5134869;28;20030;-66
2022/03/25 04:01:30;;;;;;;41.55;19.13;;;9.10;56.40;;;;;;5134769;28;20031;-66
2022/03/25 04:03:55;;;;;;;48.50;20.00;;;8.90;57.10;;;;;;5134747;28;20024;-66
2022/03/25 04:06:22;;;;;;;48.97;20.55;;;8.80;57.50;;;;;;5134696;28;20027;-66
2022/03/25 04:08:49;;;;;;;38.83;17.73;;;8.80;57.40;;;;;;5134706;28;20034;-66
2022/03/25 04:11:15;;;;;;;45.13;19.50;;;9.00;57.00;;;;;;5134634;28;20023;-66
2022/03/25 04:13:41;;;;;;;45.47;18.65;;;9.10;56.90;;;;;;5134611;28;20569;-66
2022/03/25 04:16:07;;;;;;;44.47;19.88;;;9.20;56.70;;;;;;5134481;28;20023;-66
2022/03/25 04:18:33;;;;;;;41.78;18.38;;;9.20;56.70;;;;;;5134388;28;20055;-66
2022/03/25 04:20:59;;;;;;;42.83;18.10;;;9.20;56.30;;;;;;5134456;28;20024;-66
2022/03/25 04:23:25;;;;;;;42.45;18.05;;;8.90;56.20;;;;;;5134453;28;20069;-66
2022/03/25 04:25:50;;;;;;;43.60;19.00;;;8.60;57.00;;;;;;5134362;28;20080;-66
2022/03/25 04:28:17;;;;;;;44.17;18.13;;;8.60;57.60;;;;;;5134279;28;20019;-66
2022/03/25 04:30:42;;;;;;;44.05;18.98;;;8.70;57.90;;;;;;5134295;28;20072;-66
2022/03/25 04:33:08;;;;;;;44.00;20.05;;;8.80;57.40;;;;;;5134281;28;20024;-66
2022/03/25 04:35:34;;;;;;;40.28;18.63;;;8.90;57.30;;;;;;5133117;28;20040;-66
2022/03/25 04:38:00;;;;;;;42.45;19.30;;;8.90;57.20;;;;;;5134213;28;20031;-66
2022/03/25 04:40:28;;;;;;;45.22;20.00;;;8.80;56.90;;;;;;5134291;28;20023;-66
2022/03/25 04:42:55;;;;;;;45.13;19.15;;;8.60;57.00;;;;;;5133887;28;20361;-66
2022/03/25 04:45:22;;;;;;;47.17;19.30;;;8.60;57.30;;;;;;5133896;28;20057;-66
2022/03/25 04:47:47;;;;;;;45.78;18.77;;;8.60;57.30;;;;;;5134046;28;20028;-66
2022/03/25 04:50:13;;;;;;;47.03;18.73;;;8.70;57.40;;;;;;5133982;28;20041;-66
2022/03/25 04:52:39;;;;;;;47.55;19.88;;;8.70;57.70;;;;;;5133994;28;20015;-66
2022/03/25 04:55:05;;;;;;;45.38;20.08;;;8.80;57.50;;;;;;5133870;28;20035;-66
2022/03/25 04:57:31;;;;;;;46.88;18.85;;;8.70;57.30;;;;;;5133853;28;20066;-66
2022/03/25 04:59:57;;;;;;;48.88;20.40;;;8.60;57.20;;;;;;5133883;28;20024;-66
2022/03/25 05:02:23;;;;;;;48.95;20.17;;;8.30;57.70;;;;;;5133945;28;20052;-66
2022/03/25 05:04:49;;;;;;;42.95;18.63;;;8.10;58.00;;;;;;5133860;28;20028;-65
2022/03/25 05:07:17;;;;;;;43.55;19.30;;;7.90;58.60;;;;;;5133865;28;20028;-65
2022/03/25 05:09:43;;;;;;;52.25;20.00;;;7.80;59.00;;;;;;5133820;28;20049;-65
2022/03/25 05:12:11;;;;;;;45.17;19.90;;;7.60;59.50;;;;;;5133766;28;20028;-65
2022/03/25 05:14:36;;;;;;;47.95;19.60;;;7.50;59.90;;;;;;5133763;28;20380;-65
2022/03/25 05:17:02;;;;;;;50.95;20.30;;;7.50;60.10;;;;;;5133626;28;20086;-66
2022/03/25 05:19:28;;;;;;;51.70;20.17;;;7.50;60.20;;;;;;5133483;28;20043;-66
2022/03/25 05:21:53;;;;;;;51.90;21.83;;;7.50;60.20;;;;;;5133772;28;20046;-65
2022/03/25 05:24:19;;;;;;;49.05;21.10;;;7.70;60.00;;;;;;5133605;28;20050;-65
2022/03/25 05:26:44;;;;;;;50.58;20.88;;;7.90;59.50;;;;;;5133628;28;20027;-66
2022/03/25 05:29:10;;;;;;;50.88;20.75;;;8.00;59.00;;;;;;5133560;28;20031;-65
2022/03/25 05:31:37;;;;;;;50.00;21.75;;;8.00;58.80;;;;;;5133556;28;20028;-66
2022/03/25 05:34:06;;;;;;;53.38;21.02;;;7.90;59.30;;;;;;5133557;28;20047;-65
2022/03/25 05:36:32;;;;;;;49.25;20.45;;;7.60;59.90;;;;;;5133382;28;20023;-65
2022/03/25 05:38:58;;;;;;;51.13;20.98;;;7.70;60.00;;;;;;5133492;28;20016;-65
2022/03/25 05:41:25;;;;;;;45.65;20.55;;;7.60;59.90;;;;;;5133504;28;20020;-65
2022/03/25 05:43:51;;;;;;;56.60;21.55;;;7.40;60.00;;;;;;5133457;28;20046;-65
2022/03/25 05:46:17;;;;;;;48.47;18.98;;;7.30;60.40;;;;;;5133408;28;20054;-65
2022/03/25 05:48:43;;;;;;;48.90;20.15;;;7.30;60.30;;;;;;5133537;28;20016;-65
2022/03/25 05:51:10;;;;;;;53.88;21.20;;;7.50;60.40;;;;;;5133423;28;20069;-66
2022/03/25 05:53:36;;;;;;;46.67;20.50;;;7.50;60.00;;;;;;5133401;28;20023;-66
2022/03/25 05:56:03;;;;;;;48.42;20.02;;;7.40;59.90;;;;;;5134945;28;20095;-65
2022/03/25 05:58:34;;;;;;;52.35;21.05;;;7.30;60.60;;;;;;5137372;27;20027;-65
2022/03/25 06:01:01;;;;;;;52.63;21.67;;;7.30;60.70;;;;;;5137220;28;20047;-65
2022/03/25 06:03:27;;;;;;;52.80;21.75;;;7.30;60.80;;;;;;5137179;28;20052;-65
2022/03/25 06:05:53;;;;;;;58.35;23.35;;;7.50;61.00;;;;;;5137134;28;20045;-65
2022/03/25 06:08:19;;;;;;;50.63;20.77;;;7.60;60.60;;;;;;5137045;28;20024;-65
2022/03/25 06:10:45;;;;;;;55.70;23.55;;;7.70;60.40;;;;;;5136974;28;20084;-66
2022/03/25 06:13:11;;;;;;;54.10;21.52;;;7.70;60.70;;;;;;5137024;28;20024;-65
2022/03/25 06:15:37;;;;;;;57.88;22.63;;;7.60;60.70;;;;;;5136881;27;20024;-66
2022/03/25 06:18:03;;;;;;;55.05;22.42;;;7.70;60.50;;;;;;5136851;28;20027;-66
2022/03/25 06:20:29;;;;;;;52.55;23.33;;;7.80;60.50;;;;;;5136726;28;20032;-66
2022/03/25 06:22:56;;;;;;;56.33;22.60;;;7.90;60.50;;;;;;5136698;28;20096;-66
2022/03/25 06:25:22;;;;;;;57.97;22.88;;;7.90;60.80;;;;;;5136706;28;20038;-66
2022/03/25 06:27:52;;;;;;;60.90;24.00;;;8.00;60.70;;;;;;5136643;28;20028;-66
2022/03/25 06:30:21;;;;;;;64.10;25.75;;;8.20;60.90;;;;;;5135793;28;20023;-66
2022/03/25 06:32:47;;;;;;;62.60;25.52;;;8.20;61.40;;;;;;5136713;28;20027;-66
2022/03/25 06:35:13;;;;;;;62.45;25.73;;;8.30;61.60;;;;;;5136517;28;20109;-66
2022/03/25 06:37:39;;;;;;;58.95;25.50;;;8.40;61.70;;;;;;5136535;28;20026;-66
2022/03/25 06:40:07;;;;;;;61.13;25.45;;;8.40;61.50;;;;;;5136459;28;20087;-66
2022/03/25 06:42:37;;;;;;;58.75;25.08;;;8.50;61.50;;;;;;5136337;28;20051;-66
2022/03/25 06:45:04;;;;;;;64.88;26.30;;;8.60;61.60;;;;;;5136450;28;20024;-66
2022/03/25 06:47:30;;;;;;;66.60;28.02;;;8.70;61.60;;;;;;5136204;27;20418;-66
2022/03/25 06:49:56;;;;;;;63.90;26.88;;;8.80;61.80;;;;;;5136251;28;20031;-66
2022/03/25 06:52:22;;;;;;;66.38;27.33;;;8.80;61.70;;;;;;5136234;28;20087;-66
2022/03/25 06:54:48;;;;;;;67.93;27.77;;;8.90;61.70;;;;;;5136099;28;20038;-66
2022/03/25 06:57:14;;;;;;;68.97;29.40;;;8.90;61.70;;;;;;5136099;28;20050;-66
2022/03/25 06:59:41;;;;;;;66.35;30.15;;;9.00;61.80;;;;;;5136008;28;20028;-66
2022/03/25 07:02:09;;;;;;;70.03;29.35;;;9.10;61.90;;;;;;5136043;28;20039;-65
2022/03/25 07:04:35;;;;;;;66.13;28.75;;;9.10;61.80;;;;;;5135981;28;20026;-67
2022/03/25 07:07:04;;;;;;;69.93;29.00;;;9.10;61.90;;;;;;5135700;28;20034;-65
2022/03/25 07:09:29;;;;;;;73.80;31.70;;;9.10;61.80;;;;;;5135892;28;20044;-66
2022/03/25 07:11:56;;;;;;;69.47;29.20;;;9.20;62.10;;;;;;5135657;28;20051;-66
2022/03/25 07:14:21;;;;;;;72.55;31.08;;;9.30;62.20;;;;;;5135819;28;20027;-66
2022/03/25 07:16:47;;;;;;;69.97;30.13;;;9.30;62.50;;;;;;5134723;28;20376;-65
2022/03/25 07:19:13;;;;;;;73.30;31.15;;;9.30;62.30;;;;;;5135499;28;20035;-66
2022/03/25 07:21:38;;;;;;;69.35;29.08;;;9.30;62.10;;;;;;5135584;28;20499;-65
2022/03/25 07:24:04;;;;;;;71.55;30.75;;;9.40;62.30;;;;;;5135577;28;20024;-66
2022/03/25 07:26:30;;;;;;;71.07;31.52;;;9.50;62.30;;;;;;5135536;28;20110;-65
2022/03/25 07:28:56;;;;;;;72.35;31.48;;;9.50;62.30;;;;;;5135460;28;20030;-66
2022/03/25 07:31:21;;;;;;;72.47;30.25;;;9.60;63.30;;;;;;5135421;28;20027;-65
2022/03/25 07:33:48;;;;;;;71.60;31.00;;;9.60;62.50;;;;;;5134464;28;20063;-66
2022/03/25 07:36:13;;;;;;;74.00;31.42;;;9.70;62.60;;;;;;5135274;28;20024;-66
2022/03/25 07:38:39;;;;;;;74.85;31.80;;;9.70;62.80;;;;;;5135250;28;20029;-66
2022/03/25 07:41:04;;;;;;;78.63;32.97;;;9.80;62.90;;;;;;5135154;28;20024;-66
2022/03/25 07:43:31;;;;;;;75.00;32.03;;;9.80;63.10;;;;;;5135171;28;20024;-65
2022/03/25 07:45:57;;;;;;;73.90;33.65;;;9.90;63.00;;;;;;5135207;28;20031;-65
2022/03/25 07:48:22;;;;;;;71.50;32.50;;;9.90;62.90;;;;;;5135071;28;20024;-65
2022/03/25 07:50:48;;;;;;;78.82;32.83;;;10.00;62.80;;;;;;5135058;28;20024;-65
2022/03/25 07:53:14;;;;;;;79.68;35.10;;;10.10;62.80;;;;;;5135007;28;20026;-65
2022/03/25 07:55:40;;;;;;;80.65;33.45;;;10.10;62.80;;;;;;5134908;28;20039;-65
2022/03/25 07:58:05;;;;;;;79.90;34.38;;;10.10;63.00;;;;;;5134027;28;20057;-66
2022/03/25 08:00:31;;;;;;;86.47;34.33;;;10.20;63.20;;;;;;5134853;28;20024;-66
2022/03/25 08:02:57;;;;;;;79.68;34.63;;;10.20;62.80;;;;;;5134830;28;20020;-66
2022/03/25 08:05:25;;;;;;;79.78;35.08;;;10.30;62.90;;;;;;5134801;28;20031;-66
2022/03/25 08:07:55;;;;;;;75.35;35.00;;;10.40;62.70;;;;;;5134826;28;20119;-66
2022/03/25 08:10:23;;;;;;;82.47;34.47;;;10.50;62.60;;;;;;5134696;28;20032;-66
2022/03/25 08:12:50;;;;;;;76.65;34.22;;;10.50;62.70;;;;;;5134624;28;20032;-66
2022/03/25 08:15:16;;;;;;;78.28;33.25;;;10.60;62.60;;;;;;5134638;28;20048;-66
2022/03/25 08:17:57;;;;;;;75.50;33.88;;;10.80;62.40;;;;;;5133144;28;20049;-66
2022/03/25 08:20:26;;;;;;;79.30;36.00;;;10.90;62.20;;;;;;5134296;28;20084;-66
2022/03/25 08:22:53;;;;;;;79.70;34.67;;;11.00;62.00;;;;;;5134417;28;20024;-66
2022/03/25 08:28:04;;;;;;;81.43;34.25;;;11.20;61.60;;;;;;5134382;28;20046;-66
2022/03/25 08:30:33;;;;;;;84.53;35.20;;;11.30;61.10;;;;;;5134392;28;20019;-66
2022/03/25 08:33:02;;;;;;;81.82;36.97;;;11.50;60.60;;;;;;5134446;28;20039;-66
2022/03/25 08:35:28;;;;;;;76.78;34.08;;;11.60;60.50;;;;;;5134166;28;20093;-66
2022/03/25 08:37:55;;;;;;;76.95;35.53;;;11.70;60.20;;;;;;5134210;28;20016;-65
2022/03/25 08:40:22;;;;;;;73.95;34.10;;;11.90;59.90;;;;;;5134162;28;20024;-65
2022/03/25 08:42:48;;;;;;;74.60;34.05;;;12.10;59.50;;;;;;5134104;28;20020;-66
2022/03/25 08:45:15;;;;;;;74.50;33.45;;;12.20;58.90;;;;;;5134064;28;20087;-66
2022/03/25 08:47:41;;;;;;;74.03;33.95;;;12.30;58.20;;;;;;5134009;28;20019;-66
2022/03/25 08:50:09;;;;;;;73.28;32.70;;;12.40;58.00;;;;;;5133999;28;20028;-66
2022/03/25 08:52:36;;;;;;;71.32;31.77;;;12.50;57.60;;;;;;5134017;28;20058;-65
2022/03/25 08:55:01;;;;;;;75.70;34.08;;;12.60;56.30;;;;;;5133914;28;20031;-66
2022/03/25 08:57:27;;;;;;;67.95;31.20;;;12.70;55.90;;;;;;5133889;28;20034;-66
2022/03/25 08:59:53;;;;;;;70.28;32.30;;;12.80;55.90;;;;;;5133903;28;20024;-66
2022/03/25 09:02:18;;;;;;;70.50;32.28;;;13.00;55.70;;;;;;5133854;28;20031;-65
2022/03/25 09:04:46;;;;;;;66.97;32.45;;;13.10;53.90;;;;;;5132900;28;20043;-66
2022/03/25 09:07:12;;;;;;;68.18;31.98;;;13.10;53.00;;;;;;5133855;28;20020;-66
2022/03/25 09:09:38;;;;;;;67.60;32.17;;;13.20;53.20;;;;;;5133875;28;20032;-66
2022/03/25 09:12:04;;;;;;;72.18;33.58;;;13.20;53.00;;;;;;5133744;28;20050;-67
2022/03/25 09:14:30;;;;;;;70.65;33.08;;;13.40;53.10;;;;;;5133667;28;20027;-66
2022/03/25 09:16:55;;;;;;;70.10;31.60;;;13.50;53.20;;;;;;5133639;28;20038;-66
2022/03/25 09:19:21;;;;;;;71.38;33.45;;;13.60;52.70;;;;;;5133501;28;20103;-66
2022/03/25 09:21:46;;;;;;;68.60;30.88;;;13.80;52.10;;;;;;5133635;28;20059;-65
2022/03/25 09:24:12;;;;;;;70.70;34.15;;;13.90;51.50;;;;;;5133727;28;20053;-65
2022/03/25 09:26:38;;;;;;;72.97;33.05;;;13.90;50.90;;;;;;5133659;28;20035;-65
2022/03/25 09:29:04;;;;;;;70.93;32.53;;;13.90;51.80;;;;;;5133651;28;20034;-66
2022/03/25 09:31:30;;;;;;;66.05;31.25;;;14.00;51.60;;;;;;5136766;28;20023;-65
2022/03/25 09:35:08;;;;;;;65.72;31.40;;;14.20;50.80;;;;;;5137742;28;20031;-65
2022/03/25 09:36:41;;;;;;;65.53;31.55;;;14.30;50.30;;;;;;5137461;28;20048;-65
2022/03/25 09:39:06;;;;;;;69.72;33.08;;;14.40;50.20;;;;;;5137604;28;20043;-65
2022/03/25 09:41:32;;;;;;;66.15;31.85;;;14.50;50.30;;;;;;5137741;28;20020;-66
2022/03/25 09:43:58;;;;;;;64.97;31.15;;;14.70;50.10;;;;;;5137664;28;20030;-65
2022/03/25 09:46:25;;;;;;;67.95;31.50;;;14.80;48.90;;;;;;5137627;28;20520;-66
2022/03/25 09:48:50;;;;;;;66.38;31.77;;;14.80;48.20;;;;;;5137444;28;20035;-66
2022/03/25 09:51:16;;;;;;;63.65;30.25;;;14.90;48.20;;;;;;5137356;28;20024;-65
2022/03/25 09:53:43;;;;;;;68.50;31.35;;;14.90;48.40;;;;;;5137461;28;20030;-65
2022/03/25 09:56:09;;;;;;;66.05;31.50;;;15.10;48.00;;;;;;5137226;28;20023;-65
2022/03/25 09:58:34;;;;;;;64.13;31.08;;;15.10;47.80;;;;;;5137253;28;20016;-65
2022/03/25 10:01:00;;;;;;;64.80;30.13;;;15.10;47.80;;;;;;5137158;28;20031;-65
2022/03/25 10:03:37;;;;;;;69.18;31.23;;;15.20;46.40;;;;;;5137182;28;20144;-65
2022/03/25 10:06:09;;;;;;;65.78;30.42;;;15.20;47.50;;;;;;5137213;28;20019;-65
2022/03/25 10:08:35;;;;;;;63.30;29.80;;;15.30;47.70;;;;;;5137028;28;20023;-66
2022/03/25 10:11:32;;;;;;;62.08;29.67;;;15.40;47.70;;;;;;5136985;28;20043;-66
2022/03/25 10:14:14;;;;;;;67.72;31.02;;;15.50;47.20;;;;;;5137019;28;20058;-65
2022/03/25 10:16:41;;;;;;;68.47;30.70;;;15.60;46.90;;;;;;5136077;28;20038;-65
2022/03/25 10:19:09;;;;;;;68.60;31.00;;;15.70;46.90;;;;;;5136700;28;20039;-66
2022/03/25 10:21:55;;;;;;;65.15;29.83;;;15.70;46.60;;;;;;5136780;28;20039;-65
2022/03/25 10:24:42;;;;;;;67.70;30.15;;;15.80;46.80;;;;;;5136775;27;20019;-65
2022/03/25 10:27:08;;;;;;;66.90;29.83;;;15.90;47.90;;;;;;5136767;28;20030;-65
2022/03/25 10:29:35;;;;;;;60.92;28.17;;;16.00;45.40;;;;;;5136553;28;20032;-65
2022/03/25 10:32:13;;;;;;;63.83;30.00;;;16.00;46.40;;;;;;5135554;28;20027;-65
2022/03/25 10:34:41;;;;;;;67.10;29.02;;;16.20;46.80;;;;;;5136600;28;20048;-65
2022/03/25 10:37:11;;;;;;;64.43;30.80;;;16.30;47.60;;;;;;5136407;28;20031;-65
2022/03/25 10:39:37;;;;;;;64.22;30.52;;;16.40;46.70;;;;;;5136512;28;20022;-65
2022/03/25 10:42:06;;;;;;;70.70;33.42;;;16.50;46.60;;;;;;5135734;28;20073;-65
2022/03/25 10:44:43;;;;;;;70.03;31.90;;;16.50;46.70;;;;;;5136413;28;20072;-65
2022/03/25 10:47:14;;;;;;;65.05;31.55;;;16.60;46.50;;;;;;5136272;27;20087;-65
2022/03/25 10:49:43;;;;;;;63.10;30.60;;;16.70;46.10;;;;;;5136270;28;20395;-65
2022/03/25 10:52:31;;;;;;;64.13;29.30;;;16.60;45.20;;;;;;5136256;28;20028;-65
2022/03/25 10:55:19;;;;;;;68.00;31.92;;;16.60;45.80;;;;;;5136105;28;20024;-66
2022/03/25 10:57:52;;;;;;;67.70;31.17;;;16.70;45.80;;;;;;5136171;28;20031;-65
2022/03/25 11:00:18;;;;;;;61.38;31.33;;;16.80;46.00;;;;;;5136077;28;20020;-65
2022/03/25 11:02:45;;;;;;;64.20;31.40;;;16.80;45.60;;;;;;5136034;28;20050;-66
2022/03/25 11:05:12;;;;;;;65.20;31.58;;;16.80;45.80;;;;;;5136000;28;20023;-65
2022/03/25 11:07:41;;;;;;;66.93;32.40;;;16.90;45.80;;;;;;5135909;28;20036;-65
2022/03/25 11:10:07;;;;;;;64.00;32.67;;;16.90;45.20;;;;;;5135908;28;20024;-65
2022/03/25 11:12:33;;;;;;;64.72;32.97;;;16.90;45.70;;;;;;5135885;28;20024;-65
2022/03/25 11:15:00;;;;;;;67.40;31.90;;;16.90;46.80;;;;;;5135697;28;20054;-65
2022/03/25 11:17:26;;;;;;;63.25;31.88;;;17.00;45.80;;;;;;5135725;28;20027;-65
2022/03/25 11:19:56;;;;;;;65.70;32.78;;;17.10;45.10;;;;;;5135393;28;20048;-66
2022/03/25 11:22:23;;;;;;;61.63;31.80;;;17.30;45.40;;;;;;5134545;28;20032;-65
2022/03/25 11:24:57;;;;;;;63.85;31.48;;;17.40;45.20;;;;;;5134517;28;20052;-65
2022/03/25 11:27:29;;;;;;;63.60;31.88;;;17.50;44.70;;;;;;5135605;28;20019;-65
2022/03/25 11:30:00;;;;;;;64.13;32.40;;;17.50;45.20;;;;;;5135456;28;20024;-65
2022/03/25 11:32:26;;;;;;;67.95;33.20;;;17.60;44.80;;;;;;5135600;28;20015;-66
2022/03/25 11:34:54;;;;;;;62.47;31.08;;;17.70;45.40;;;;;;5135370;28;20024;-66
2022/03/25 11:37:28;;;;;;;67.53;32.38;;;17.80;44.60;;;;;;5135298;28;20039;-65
2022/03/25 11:40:13;;;;;;;66.13;32.53;;;18.00;44.20;;;;;;5135351;28;20045;-65
2022/03/25 11:42:40;;;;;;;66.15;32.42;;;18.00;44.10;;;;;;5135213;28;20016;-65
2022/03/25 11:45:21;;;;;;;59.53;31.00;;;18.00;44.20;;;;;;5135176;28;20043;-65
2022/03/25 11:47:59;;;;;;;60.50;31.70;;;18.10;44.40;;;;;;5135136;28;20016;-65
2022/03/25 11:50:36;;;;;;;58.05;29.30;;;18.30;44.10;;;;;;5135139;28;20030;-65
2022/03/25 11:53:11;;;;;;;59.55;29.40;;;18.30;42.90;;;;;;5133981;28;20050;-65
2022/03/25 11:55:59;;;;;;;64.25;31.98;;;18.40;42.80;;;;;;5134796;28;20031;-65
2022/03/25 11:58:26;;;;;;;62.60;31.40;;;18.50;42.80;;;;;;5135063;28;20020;-65
2022/03/25 12:00:56;;;;;;;64.82;33.20;;;18.50;42.50;;;;;;5134913;28;20031;-65
2022/03/25 12:03:43;;;;;;;62.25;31.42;;;18.40;42.50;;;;;;5134833;28;20024;-65
2022/03/25 12:06:09;;;;;;;66.57;32.08;;;18.50;42.70;;;;;;5134808;27;20062;-65
2022/03/25 12:08:35;;;;;;;64.53;32.40;;;18.60;43.30;;;;;;5134744;28;20038;-65
2022/03/25 12:11:05;;;;;;;62.55;31.33;;;18.70;43.10;;;;;;5134623;28;20036;-65
2022/03/25 12:14:10;;;;;;;61.40;31.35;;;18.80;41.80;;;;;;5134737;28;20066;-65
2022/03/25 12:16:55;;;;;;;60.13;29.33;;;18.90;41.80;;;;;;5072024;28;20052;-65
2022/03/25 12:19:27;;;;;;;59.10;29.42;;;19.00;42.60;;;;;;5071811;28;20064;-65
2022/03/25 12:21:53;;;;;;;55.65;29.63;;;19.00;41.00;;;;;;5112321;28;20042;-65
2022/03/25 12:24:19;;;;;;;55.10;28.55;;;19.10;41.30;;;;;;5134482;27;20079;-65
2022/03/25 12:26:45;;;;;;;56.38;28.45;;;19.10;40.60;;;;;;5134578;28;20039;-65
2022/03/25 12:29:11;;;;;;;50.20;26.83;;;19.20;40.40;;;;;;5134218;28;20032;-65
2022/03/25 12:31:37;;;;;;;59.13;29.08;;;19.10;39.60;;;;;;5134368;28;20024;-65
2022/03/25 12:34:05;;;;;;;53.83;28.15;;;19.00;40.40;;;;;;5134327;28;20031;-65
2022/03/25 12:36:43;;;;;;;55.60;28.08;;;19.00;40.30;;;;;;5134183;28;20024;-65